< < Back
Terminal Aerodrome Forecast


Current Version              Previous Versions:   1  2  3  4  5  6  7  8  9  

Terminal Aerodrome Forecast

860
FTUS42 KFFC 260530
TAFMCN
TAF
KMCN 260530Z 2606/2706 00000KT P6SM SKC
      TEMPO 2609/2612 4SM BR
     FM261500 09008KT P6SM FEW045
     FM270100 12003KT P6SM SCT120=



Latest METAR

607
SAUS80 KWBC 260800 RRA
MTRMCN
METAR KMCN 260753Z AUTO 00000KT 10SM CLR 23/19 A3011 RMK AO2 SLP189
T02280194 TSNO


USA.gov is the U.S. government's official web portal to all federal, state and local government web resources and services.